Time;durP1;ratioP1;P1;durP2;ratioP2;P2;SDS_P1;SDS_P2;PMS_P1;PMS_P2;Temp;Humidity;BMP_temperature;BMP_pressure;BME280_temperature;BME280_humidity;BME280_pressure;Samples;Min_cycle;Max_cycle;Signal;HPM_P1;HPM_P2
2023/04/09 00:01:38;;;;;;;66.63;50.88;;;;;;;9.15;93.82;102358.94;6238390;23;20386;-86
2023/04/09 00:04:03;;;;;;;64.63;49.85;;;;;;;9.14;93.80;102359.88;6237779;23;20070;-86
2023/04/09 00:06:29;;;;;;;64.68;50.28;;;;;;;9.16;93.74;102354.53;6235959;23;20350;-85
2023/04/09 00:08:55;;;;;;;64.30;50.70;;;;;;;9.12;93.90;102364.34;6234757;23;20027;-85
2023/04/09 00:11:21;;;;;;;63.15;50.13;;;;;;;9.12;94.31;102350.19;6237177;23;20004;-87
2023/04/09 00:13:46;;;;;;;64.95;49.95;;;;;;;9.13;94.54;102351.94;6235082;23;20012;-85
2023/04/09 00:16:11;;;;;;;61.35;48.53;;;;;;;9.09;94.52;102347.59;6235132;23;20000;-86
2023/04/09 00:18:37;;;;;;;61.25;47.65;;;;;;;9.09;94.86;102347.59;6235271;23;20008;-87
2023/04/09 00:21:02;;;;;;;58.17;46.50;;;;;;;9.09;94.96;102345.81;6235284;23;20008;-86
2023/04/09 00:23:27;;;;;;;60.95;48.08;;;;;;;9.03;95.35;102348.59;6235149;23;20062;-85
2023/04/09 00:25:53;;;;;;;54.60;43.00;;;;;;;9.05;95.87;102343.25;6208843;23;20030;-86
2023/04/09 00:28:18;;;;;;;53.15;43.25;;;;;;;9.01;95.85;102339.78;6209931;23;20000;-86
2023/04/09 00:30:44;;;;;;;53.92;43.25;;;;;;;9.00;96.16;102348.66;6254142;23;20030;-86
2023/04/09 00:33:09;;;;;;;53.03;43.42;;;;;;;9.00;96.01;102334.50;6257703;23;20014;-86
2023/04/09 00:35:35;;;;;;;49.35;41.33;;;;;;;8.96;96.09;102337.22;6256954;23;20011;-86
2023/04/09 00:38:00;;;;;;;48.72;40.17;;;;;;;8.95;96.69;102339.91;6243330;23;19996;-86
2023/04/09 00:40:25;;;;;;;49.05;40.60;;;;;;;8.92;97.20;102335.53;6239824;23;20018;-87
2023/04/09 00:42:51;;;;;;;48.65;40.63;;;;;;;8.91;97.17;102324.94;6239892;23;20441;-86
2023/04/09 00:45:16;;;;;;;44.83;37.65;;;;;;;8.92;97.37;102332.88;6240455;23;20008;-86
2023/04/09 00:47:44;;;;;;;44.65;36.83;;;;;;;8.89;97.66;102322.31;6238177;22;20008;-87
2023/04/09 00:50:09;;;;;;;46.53;36.65;;;;;;;8.87;98.55;102318.81;6239980;23;20012;-88
2023/04/09 00:52:35;;;;;;;43.03;36.60;;;;;;;8.88;98.48;102319.69;6239669;23;20081;-86
2023/04/09 00:55:04;;;;;;;44.03;37.05;;;;;;;8.88;98.62;102320.56;6239576;23;20007;-86
2023/04/09 00:57:29;;;;;;;42.03;35.17;;;;;;;8.88;98.85;102319.69;6211474;23;20341;-86
2023/04/09 00:59:55;;;;;;;43.60;37.05;;;;;;;8.87;98.61;102325.91;6212441;23;20015;-88
2023/04/09 01:02:20;;;;;;;41.88;36.47;;;;;;;8.89;99.06;102327.63;6239264;23;20054;-87
2023/04/09 01:04:46;;;;;;;42.63;34.95;;;;;;;8.86;99.28;102322.41;6210862;23;20346;-85
2023/04/09 01:07:26;;;;;;;44.35;37.45;;;;;;;8.85;99.58;102320.63;6210024;23;19995;-86
2023/04/09 01:10:13;;;;;;;43.88;36.40;;;;;;;8.85;100.00;102325.94;6238071;23;20008;-86
2023/04/09 01:13:12;;;;;;;43.67;36.30;;;;;;;8.82;99.94;102311.84;6238282;23;20007;-86
2023/04/09 01:15:52;;;;;;;44.50;37.90;;;;;;;8.79;100.00;102319.88;6215038;23;20027;-86
2023/04/09 01:18:35;;;;;;;45.88;37.80;;;;;;;8.72;100.00;102295.22;6236805;23;20065;-86
2023/04/09 01:21:07;;;;;;;46.45;38.22;;;;;;;8.80;100.00;102309.22;6211438;23;20012;-85
2023/04/09 01:24:09;;;;;;;46.00;38.58;;;;;;;8.84;100.00;102320.66;6211471;23;20095;-85
2023/04/09 01:26:53;;;;;;;48.53;40.28;;;;;;;8.82;100.00;102314.50;6237737;23;20055;-86
2023/04/09 01:29:21;;;;;;;48.40;39.87;;;;;;;8.77;100.00;102311.94;6212079;23;20063;-86
2023/04/09 01:31:48;;;;;;;46.88;38.80;;;;;;;8.77;100.00;102319.91;6236837;23;20247;-86
2023/04/09 01:34:15;;;;;;;46.20;38.65;;;;;;;8.77;100.00;102313.72;6211837;23;20054;-87
2023/04/09 01:36:43;;;;;;;50.58;40.90;;;;;;;8.75;100.00;102308.44;6238665;23;20011;-87
2023/04/09 01:39:09;;;;;;;48.15;38.60;;;;;;;8.73;100.00;102305.81;6212598;23;19992;-87
2023/04/09 01:41:35;;;;;;;48.25;39.80;;;;;;;8.69;100.00;102304.16;6237656;23;20745;-87
2023/04/09 01:44:02;;;;;;;48.38;40.92;;;;;;;8.75;100.00;102311.09;6238764;23;20022;-86
2023/04/09 01:46:28;;;;;;;47.47;39.42;;;;;;;8.71;100.00;102304.09;6238164;23;20033;-85
2023/04/09 01:48:55;;;;;;;50.97;42.10;;;;;;;8.72;100.00;102303.19;6238961;22;20051;-85
2023/04/09 01:51:22;;;;;;;48.92;40.28;;;;;;;8.69;100.00;102305.91;6212536;23;20051;-85
2023/04/09 01:53:48;;;;;;;51.83;39.88;;;;;;;8.73;100.00;102304.94;6265405;22;20078;-86
2023/04/09 01:56:13;;;;;;;51.33;40.05;;;;;;;8.65;100.00;102297.16;6265991;22;20059;-84
2023/04/09 01:58:39;;;;;;;49.45;40.80;;;;;;;8.73;100.00;102311.13;6265927;22;20025;-85
2023/04/09 02:01:33;;;;;;;53.13;42.53;;;;;;;8.70;100.00;102297.06;6262947;23;20015;-85
2023/04/09 02:04:02;;;;;;;53.55;42.20;;;;;;;8.71;100.00;102306.75;6265140;22;20024;-87
2023/04/09 02:06:39;;;;;;;53.10;42.63;;;;;;;8.69;100.00;102306.81;6259361;23;20539;-86
2023/04/09 02:09:07;;;;;;;53.58;42.50;;;;;;;8.69;100.00;102306.81;6243389;23;20000;-86
2023/04/09 02:11:33;;;;;;;52.58;41.50;;;;;;;8.71;100.00;102301.44;6243442;23;20004;-86
2023/04/09 02:14:00;;;;;;;52.17;41.83;;;;;;;8.73;100.00;102308.47;6243004;23;20019;-86
2023/04/09 02:16:26;;;;;;;52.47;43.00;;;;;;;8.73;100.00;102307.59;6215205;23;20345;-86
2023/04/09 02:18:53;;;;;;;54.13;42.45;;;;;;;8.69;100.00;102303.25;6240664;23;20410;-86
2023/04/09 02:21:19;;;;;;;53.58;42.55;;;;;;;8.67;100.00;102295.31;6239566;23;20035;-87
2023/04/09 02:23:44;;;;;;;55.72;44.55;;;;;;;8.67;100.00;102299.75;6241731;23;20027;-84
2023/04/09 02:26:10;;;;;;;56.38;44.33;;;;;;;8.69;100.00;102305.91;6246273;23;20004;-83
2023/04/09 02:28:35;;;;;;;53.70;42.95;;;;;;;8.67;100.00;102292.66;6244253;23;20004;-84
2023/04/09 02:31:00;;;;;;;54.22;43.33;;;;;;;8.64;100.00;102294.50;6245417;23;20330;-85
2023/04/09 02:33:25;;;;;;;53.20;42.60;;;;;;;8.64;100.00;102294.50;6245153;23;20087;-84
2023/04/09 02:35:51;;;;;;;55.95;44.35;;;;;;;8.62;100.00;102298.97;6243835;23;20000;-85
2023/04/09 02:38:16;;;;;;;58.05;44.97;;;;;;;8.62;100.00;102291.03;6239160;23;20648;-86
2023/04/09 02:40:41;;;;;;;56.35;44.65;;;;;;;8.54;100.00;102285.00;6236184;23;20078;-86
2023/04/09 02:43:08;;;;;;;58.63;44.75;;;;;;;8.55;100.00;102292.91;6237639;23;20023;-86
2023/04/09 02:45:33;;;;;;;59.67;46.55;;;;;;;8.53;100.00;102288.53;6210496;23;20103;-87
2023/04/09 02:47:58;;;;;;;59.20;45.55;;;;;;;8.51;100.00;102295.66;6239001;22;20012;-86
2023/04/09 02:50:24;;;;;;;59.00;45.60;;;;;;;8.50;100.00;102297.44;6237678;23;20004;-86
2023/04/09 02:52:49;;;;;;;62.63;46.95;;;;;;;8.48;100.00;102293.91;6236966;23;20332;-85
2023/04/09 02:55:15;;;;;;;62.17;46.65;;;;;;;8.44;100.00;102294.88;6236021;23;20691;-86
2023/04/09 02:57:41;;;;;;;59.85;46.38;;;;;;;8.43;100.00;102291.34;6245886;23;20093;-85
2023/04/09 03:00:07;;;;;;;60.97;45.70;;;;;;;8.45;100.00;102289.56;6226827;23;20365;-85
2023/04/09 03:02:32;;;;;;;60.63;47.15;;;;;;;8.39;100.00;102294.97;6253551;23;20004;-86
2023/04/09 03:04:57;;;;;;;59.97;47.42;;;;;;;8.38;100.00;102289.69;6243088;23;20049;-86
2023/04/09 03:07:23;;;;;;;60.15;46.40;;;;;;;8.32;100.00;102282.72;6208630;23;20038;-87
2023/04/09 03:09:48;;;;;;;60.88;46.13;;;;;;;8.28;100.00;102288.97;6236913;23;20038;-85
2023/04/09 03:12:13;;;;;;;61.00;47.58;;;;;;;8.20;100.00;102293.53;6236709;23;20334;-85
2023/04/09 03:14:38;;;;;;;61.55;47.17;;;;;;;8.16;100.00;102286.53;6235875;23;20008;-86
2023/04/09 03:17:04;;;;;;;55.85;44.28;;;;;;;8.16;100.00;102291.84;6236531;23;20015;-86
2023/04/09 03:19:32;;;;;;;62.20;47.35;;;;;;;8.13;100.00;102286.59;6236585;23;20419;-87
2023/04/09 03:21:57;;;;;;;59.70;45.08;;;;;;;8.13;100.00;102286.59;6237039;23;20683;-86
2023/04/09 03:24:23;;;;;;;59.33;44.78;;;;;;;8.09;100.00;102279.59;6236053;23;20007;-86
2023/04/09 03:26:48;;;;;;;57.17;43.40;;;;;;;8.05;100.00;102276.09;6236125;23;20042;-87
2023/04/09 03:29:13;;;;;;;53.95;40.63;;;;;;;7.99;100.00;102271.81;6209337;23;20012;-85
2023/04/09 03:31:39;;;;;;;54.80;42.90;;;;;;;7.95;100.00;102271.88;6236535;23;20027;-86
2023/04/09 03:34:04;;;;;;;52.97;40.85;;;;;;;7.95;100.00;102277.19;6239098;23;20004;-86
2023/04/09 03:36:30;;;;;;;52.45;39.95;;;;;;;7.92;100.00;102272.78;6236346;23;20055;-86
2023/04/09 03:38:55;;;;;;;51.53;38.58;;;;;;;7.83;100.00;102261.47;6235778;23;20004;-85
2023/04/09 03:41:20;;;;;;;51.00;40.35;;;;;;;7.81;100.00;102266.78;6236197;23;20058;-86
2023/04/09 03:43:46;;;;;;;50.83;39.05;;;;;;;7.77;100.00;102264.22;6237216;23;20000;-87
2023/04/09 03:46:15;;;;;;;51.28;40.47;;;;;;;7.69;100.00;102267.91;6235601;23;20035;-86
2023/04/09 03:48:41;;;;;;;54.20;40.58;;;;;;;7.59;100.00;102268.91;6237107;22;20100;-86
2023/04/09 03:51:13;;;;;;;56.45;41.33;;;;;;;7.52;100.00;102269.91;6237687;23;20047;-86
2023/04/09 03:53:39;;;;;;;53.50;40.67;;;;;;;7.43;100.00;102259.47;6237248;23;20130;-87
2023/04/09 03:56:05;;;;;;;54.35;41.00;;;;;;;7.45;100.00;102255.91;6237106;23;20425;-87
2023/04/09 03:58:30;;;;;;;56.45;41.90;;;;;;;7.41;100.00;102266.56;6237805;23;20004;-87
2023/04/09 04:00:56;;;;;;;52.80;40.60;;;;;;;7.39;100.00;102271.00;6236774;23;20004;-86
2023/04/09 04:03:21;;;;;;;52.03;40.47;;;;;;;7.31;100.00;102249.91;6236192;23;20036;-87
2023/04/09 04:05:46;;;;;;;53.22;39.97;;;;;;;7.33;100.00;102260.50;6237059;23;20278;-88
2023/04/09 04:08:12;;;;;;;54.40;41.72;;;;;;;7.35;100.00;102264.00;6239122;23;20000;-86
2023/04/09 04:10:37;;;;;;;53.72;40.40;;;;;;;7.31;100.00;102267.59;6237026;23;20015;-86
2023/04/09 04:13:02;;;;;;;52.50;40.63;;;;;;;7.22;100.00;102258.88;6245978;23;20072;-88
2023/04/09 04:15:28;;;;;;;53.60;41.80;;;;;;;7.18;100.00;102270.41;6263509;22;19988;-87
2023/04/09 04:17:54;;;;;;;52.88;39.92;;;;;;;7.12;100.00;102266.97;6263542;22;20012;-87
2023/04/09 04:20:19;;;;;;;53.55;40.42;;;;;;;7.02;100.00;102265.34;6264623;22;19992;-87
2023/04/09 04:22:45;;;;;;;53.72;40.25;;;;;;;6.94;100.00;102268.97;6263634;22;20044;-86
2023/04/09 04:25:10;;;;;;;53.03;40.50;;;;;;;6.88;100.00;102266.41;6263308;22;19988;-86
2023/04/09 04:27:36;;;;;;;56.03;41.58;;;;;;;6.76;100.00;102261.25;6261559;22;20390;-87
2023/04/09 04:30:01;;;;;;;55.30;41.60;;;;;;;6.67;100.00;102267.53;6241469;23;20419;-86
2023/04/09 04:32:27;;;;;;;54.35;40.97;;;;;;;6.59;100.00;102263.25;6249177;23;20000;-85
2023/04/09 04:34:52;;;;;;;54.97;40.88;;;;;;;6.50;100.00;102258.94;6224704;23;20004;-86
2023/04/09 04:37:18;;;;;;;54.17;40.00;;;;;;;6.44;100.00;102264.31;6227416;23;20499;-85
2023/04/09 04:39:43;;;;;;;52.85;40.33;;;;;;;6.36;100.00;102260.88;6253984;23;20023;-86
2023/04/09 04:42:08;;;;;;;56.03;40.92;;;;;;;6.32;100.00;102267.06;6241661;23;20005;-87
2023/04/09 04:44:34;;;;;;;52.00;39.80;;;;;;;6.28;100.00;102258.28;6239841;23;20008;-87
2023/04/09 04:46:59;;;;;;;55.40;40.80;;;;;;;6.20;100.00;102257.50;6238767;23;20042;-86
2023/04/09 04:49:24;;;;;;;54.40;40.90;;;;;;;6.14;100.00;102269.00;6238267;22;20166;-86
2023/04/09 04:51:49;;;;;;;51.70;40.25;;;;;;;6.04;100.00;102264.69;6237278;23;20442;-87
2023/04/09 04:54:15;;;;;;;56.55;42.25;;;;;;;5.98;100.00;102263.00;6237291;23;20008;-87
2023/04/09 04:56:40;;;;;;;51.00;40.15;;;;;;;5.99;100.00;102270.03;6237208;23;20014;-87
2023/04/09 04:59:05;;;;;;;52.58;40.17;;;;;;;5.90;100.00;102269.22;6236537;23;20010;-87
2023/04/09 05:01:31;;;;;;;54.63;40.20;;;;;;;5.90;100.00;102269.22;6237215;23;20097;-87
2023/04/09 05:03:56;;;;;;;52.38;38.28;;;;;;;5.87;100.00;102271.88;6236142;23;20495;-88
2023/04/09 05:06:21;;;;;;;52.88;40.47;;;;;;;5.78;100.00;102272.81;6236127;23;20103;-87
2023/04/09 05:08:47;;;;;;;51.53;38.47;;;;;;;5.75;100.00;102264.91;6236479;23;20042;-87
2023/04/09 05:11:13;;;;;;;53.33;39.53;;;;;;;5.77;100.00;102278.09;6237207;23;20565;-86
2023/04/09 05:13:39;;;;;;;53.50;40.55;;;;;;;5.65;100.00;102264.13;6235375;23;20449;-86
2023/04/09 05:16:05;;;;;;;53.58;39.67;;;;;;;5.66;100.00;102259.72;6236812;23;20302;-86
2023/04/09 05:18:30;;;;;;;54.80;40.08;;;;;;;5.64;100.00;102258.84;6238457;23;20008;-86
2023/04/09 05:20:55;;;;;;;51.35;38.92;;;;;;;5.70;100.00;102261.44;6238306;23;20004;-88
2023/04/09 05:23:21;;;;;;;54.00;40.30;;;;;;;5.62;100.00;102260.63;6251456;23;20329;-86
2023/04/09 05:25:49;;;;;;;54.60;40.20;;;;;;;5.64;100.00;102259.75;6231068;23;20044;-86
2023/04/09 05:28:18;;;;;;;55.70;39.63;;;;;;;5.66;100.00;102265.00;6231113;23;20076;-86
2023/04/09 05:30:46;;;;;;;51.05;39.08;;;;;;;5.63;100.00;102259.72;6212548;23;20006;-86
2023/04/09 05:33:11;;;;;;;55.40;41.45;;;;;;;5.66;100.00;102265.88;6237881;23;20007;-86
2023/04/09 05:35:38;;;;;;;55.53;41.28;;;;;;;5.64;100.00;102270.31;6237530;23;20008;-86
2023/04/09 05:38:04;;;;;;;55.08;39.95;;;;;;;5.66;100.00;102259.72;6241444;23;20152;-87
2023/04/09 05:40:29;;;;;;;53.72;40.13;;;;;;;5.63;100.00;102262.38;6238565;23;20000;-85
2023/04/09 05:42:54;;;;;;;54.75;40.30;;;;;;;5.66;100.00;102260.59;6239676;23;20000;-86
2023/04/09 05:45:20;;;;;;;54.70;40.05;;;;;;;5.66;100.00;102257.94;6238116;23;20024;-85
2023/04/09 05:47:45;;;;;;;54.72;39.58;;;;;;;5.68;100.00;102255.28;6238034;22;20430;-86
2023/04/09 05:50:12;;;;;;;54.80;39.83;;;;;;;5.78;100.00;102266.66;6210893;23;20008;-87
2023/04/09 05:52:37;;;;;;;54.42;39.47;;;;;;;5.72;100.00;102252.59;6237732;23;20000;-87
2023/04/09 05:55:02;;;;;;;52.05;39.17;;;;;;;5.74;100.00;102263.16;6209626;23;20015;-87
2023/04/09 05:57:29;;;;;;;55.45;40.08;;;;;;;5.84;100.00;102271.88;6235947;23;20035;-86
2023/04/09 05:59:55;;;;;;;53.35;40.63;;;;;;;5.88;100.00;102268.31;6237293;23;20004;-86
2023/04/09 06:02:20;;;;;;;55.38;40.72;;;;;;;5.94;100.00;102271.84;6235904;23;20011;-86
2023/04/09 06:04:45;;;;;;;54.60;40.90;;;;;;;6.06;100.00;102267.31;6236267;23;20000;-87
2023/04/09 06:07:11;;;;;;;54.63;41.17;;;;;;;6.17;100.00;102268.97;6237422;23;20130;-86
2023/04/09 06:09:37;;;;;;;51.17;39.38;;;;;;;6.27;100.00;102267.13;6212240;23;20084;-87
2023/04/09 06:12:03;;;;;;;50.17;37.92;;;;;;;6.44;100.00;102262.53;6244149;23;20004;-86
2023/04/09 06:14:28;;;;;;;52.20;38.80;;;;;;;6.47;100.00;102270.41;6245740;23;20008;-85
2023/04/09 06:16:54;;;;;;;52.47;38.58;;;;;;;6.66;100.00;102275.50;6220112;23;20011;-86
2023/04/09 06:19:19;;;;;;;52.35;39.17;;;;;;;6.72;100.00;102268.34;6246396;23;20018;-87
2023/04/09 06:21:44;;;;;;;49.40;37.85;;;;;;;6.85;100.00;102276.16;6257009;22;20016;-85
2023/04/09 06:24:10;;;;;;;51.30;38.88;;;;;;;6.98;100.00;102269.78;6255756;23;20008;-86
2023/04/09 06:26:36;;;;;;;48.05;36.92;;;;;;;7.06;100.00;102270.56;6253643;23;20076;-85
2023/04/09 06:29:01;;;;;;;49.20;38.75;;;;;;;7.26;100.00;102286.19;6226842;23;20003;-87
2023/04/09 06:31:27;;;;;;;44.45;37.00;;;;;;;7.30;100.00;102281.72;6259528;22;19999;-86
2023/04/09 06:33:52;;;;;;;48.33;36.65;;;;;;;7.43;100.00;102291.25;6265982;22;20114;-86
2023/04/09 06:36:17;;;;;;;50.08;37.67;;;;;;;7.52;100.00;102293.75;6268608;22;20019;-87
2023/04/09 06:38:43;;;;;;;46.70;36.65;;;;;;;7.64;100.00;102280.31;6241758;23;20023;-86
2023/04/09 06:41:10;;;;;;;49.60;38.78;;;;;;;7.86;100.00;102288.81;6268359;22;20022;-85
2023/04/09 06:43:36;;;;;;;47.28;36.53;;;;;;;7.98;100.00;102283.31;6268952;22;20004;-86
2023/04/09 06:46:01;;;;;;;47.25;37.78;;;;;;;7.95;100.00;102293.97;6252924;23;20011;-87
2023/04/09 06:48:26;;;;;;;47.35;37.35;;;;;;;8.05;100.00;102297.31;6243361;22;20064;-86
2023/04/09 06:50:52;;;;;;;47.42;37.95;;;;;;;8.16;99.83;102294.50;6243309;23;20000;-86
2023/04/09 06:53:17;;;;;;;41.97;35.53;;;;;;;8.40;98.46;102291.44;6242447;23;20011;-86
2023/04/09 06:55:42;;;;;;;46.92;36.95;;;;;;;8.55;97.69;102298.22;6241977;23;20003;-86
2023/04/09 06:58:08;;;;;;;46.28;37.70;;;;;;;8.62;96.94;102291.88;6241908;23;20008;-87
2023/04/09 07:00:33;;;;;;;44.33;36.45;;;;;;;8.75;96.78;102289.00;6240295;23;20588;-84
2023/04/09 07:02:58;;;;;;;43.60;36.63;;;;;;;8.89;94.88;102295.75;6239066;23;20004;-85
2023/04/09 07:05:24;;;;;;;46.40;38.13;;;;;;;8.97;95.34;102292.94;6242537;23;20073;-85
2023/04/09 07:07:49;;;;;;;49.08;38.80;;;;;;;9.11;94.23;102290.88;6250215;23;20004;-86
2023/04/09 07:10:14;;;;;;;43.08;36.75;;;;;;;9.42;94.09;102299.03;6250198;23;20004;-84
2023/04/09 07:12:40;;;;;;;44.85;36.50;;;;;;;9.64;91.42;102298.53;6248347;23;20012;-85
2023/04/09 07:15:08;;;;;;;44.10;36.45;;;;;;;9.78;91.05;102306.16;6238838;23;20071;-86
2023/04/09 07:17:34;;;;;;;42.50;35.55;;;;;;;9.90;89.54;102290.78;6237199;23;20393;-87
2023/04/09 07:20:00;;;;;;;44.47;36.58;;;;;;;10.04;89.34;102289.59;6237372;23;20034;-86
2023/04/09 07:22:27;;;;;;;41.40;35.63;;;;;;;10.27;87.32;102302.31;6236266;23;20004;-86
2023/04/09 07:24:53;;;;;;;43.88;36.25;;;;;;;10.33;86.42;102303.03;6235684;23;20111;-85
2023/04/09 07:27:20;;;;;;;42.92;35.30;;;;;;;10.66;86.24;102303.03;6236420;23;20036;-86
2023/04/09 07:29:46;;;;;;;42.92;36.42;;;;;;;10.68;84.62;102298.53;6210037;23;20061;-87
2023/04/09 07:32:11;;;;;;;43.17;36.35;;;;;;;10.92;84.06;102296.97;6235975;23;20003;-87
2023/04/09 07:34:36;;;;;;;42.92;35.47;;;;;;;10.93;82.88;102298.69;6236271;23;20023;-84
2023/04/09 07:37:02;;;;;;;42.67;35.95;;;;;;;11.10;83.12;102300.88;6240432;23;20042;-85
2023/04/09 07:39:27;;;;;;;40.95;34.50;;;;;;;11.32;80.75;102301.09;6236583;23;20417;-85
2023/04/09 07:41:52;;;;;;;43.00;36.38;;;;;;;11.59;81.41;102307.38;6212729;23;20015;-86
2023/04/09 07:44:18;;;;;;;40.40;35.25;;;;;;;11.81;79.47;102302.19;6258388;23;20016;-86
2023/04/09 07:46:43;;;;;;;39.25;34.95;;;;;;;11.56;78.12;102299.44;6255925;22;20452;-85
2023/04/09 07:49:08;;;;;;;42.33;36.15;;;;;;;11.31;79.88;102310.00;6251200;23;20023;-86
2023/04/09 07:51:34;;;;;;;41.15;36.15;;;;;;;10.98;80.66;102310.09;6238021;23;20008;-86
2023/04/09 07:53:59;;;;;;;43.33;35.28;;;;;;;11.19;82.12;102305.91;6236893;23;20449;-86
2023/04/09 07:56:24;;;;;;;42.53;35.80;;;;;;;11.55;79.25;102316.38;6236041;23;20005;-86
2023/04/09 07:58:50;;;;;;;42.85;36.13;;;;;;;11.97;78.91;102298.13;6235909;23;20073;-88
2023/04/09 08:01:23;;;;;;;41.35;35.13;;;;;;;12.79;77.56;102291.69;6210300;23;20441;-86
2023/04/09 08:03:49;;;;;;;39.05;34.83;;;;;;;13.51;72.67;102296.97;6236118;23;20012;-86
2023/04/09 08:06:14;;;;;;;38.88;34.33;;;;;;;14.09;70.07;102296.38;6237330;23;20053;-87
2023/04/09 08:08:39;;;;;;;37.17;33.20;;;;;;;14.51;69.01;102290.13;6235011;23;20007;-85
2023/04/09 08:11:05;;;;;;;38.83;34.63;;;;;;;14.71;66.32;102292.75;6236867;23;20008;-86
2023/04/09 08:13:31;;;;;;;38.22;34.15;;;;;;;15.16;67.83;102294.25;6236049;23;20004;-85
2023/04/09 08:15:59;;;;;;;37.78;33.67;;;;;;;15.26;65.42;102300.94;6235911;23;20171;-86
2023/04/09 08:18:25;;;;;;;37.15;33.17;;;;;;;15.19;64.12;102296.81;6236322;23;20004;-87
2023/04/09 08:20:50;;;;;;;38.25;34.10;;;;;;;14.82;64.46;102301.19;6234004;23;20230;-86
2023/04/09 08:23:15;;;;;;;38.05;33.90;;;;;;;14.87;65.28;102298.28;6234085;23;20000;-86
2023/04/09 08:25:40;;;;;;;39.22;34.88;;;;;;;15.23;62.71;102298.41;6235342;23;20012;-86
2023/04/09 08:28:07;;;;;;;39.90;35.58;;;;;;;14.92;62.72;102301.63;6235057;23;20024;-87
2023/04/09 08:30:33;;;;;;;38.28;34.28;;;;;;;14.73;66.07;102295.38;6236071;23;20338;-87
2023/04/09 08:32:59;;;;;;;40.08;35.58;;;;;;;14.59;64.63;102295.97;6234251;23;20014;-86
2023/04/09 08:35:25;;;;;;;38.13;33.90;;;;;;;14.45;64.20;102291.19;6236448;23;20831;-87
2023/04/09 08:37:50;;;;;;;40.22;35.83;;;;;;;14.51;66.36;102295.47;6235280;23;20000;-87
2023/04/09 08:40:15;;;;;;;40.90;35.45;;;;;;;14.78;65.28;102286.19;6236887;23;20498;-86
2023/04/09 08:42:46;;;;;;;40.50;35.83;;;;;;;15.12;64.03;102287.28;6233712;23;20065;-88
2023/04/09 08:45:12;;;;;;;40.30;35.90;;;;;;;15.10;63.25;102291.88;6235019;23;20004;-88
2023/04/09 08:47:40;;;;;;;40.75;35.97;;;;;;;15.52;63.33;102290.78;6235904;22;20082;-86
2023/04/09 08:50:06;;;;;;;39.30;35.05;;;;;;;15.75;62.38;102287.84;6253242;23;20006;-84
2023/04/09 08:52:33;;;;;;;40.70;36.35;;;;;;;15.83;62.27;102280.28;6260138;22;20004;-87
2023/04/09 08:54:59;;;;;;;38.70;34.58;;;;;;;16.62;59.24;102280.66;6264133;22;20086;-86
2023/04/09 08:57:24;;;;;;;40.50;36.00;;;;;;;16.29;58.29;102293.19;6264042;22;19988;-87
2023/04/09 08:59:49;;;;;;;39.45;35.28;;;;;;;15.63;60.62;102297.38;6262132;22;20052;-88
2023/04/09 09:02:15;;;;;;;39.67;35.38;;;;;;;15.48;61.81;102290.03;6264959;22;20015;-87
2023/04/09 09:04:48;;;;;;;40.33;35.70;;;;;;;15.41;61.39;102291.28;6250409;22;20042;-87
2023/04/09 09:07:14;;;;;;;39.63;35.40;;;;;;;15.50;61.46;102281.91;6242276;23;20054;-88
2023/04/09 09:09:52;;;;;;;41.05;35.97;;;;;;;15.92;60.95;102290.53;6244147;23;20245;-87
2023/04/09 09:12:37;;;;;;;39.03;35.03;;;;;;;16.46;60.97;102286.94;6217425;23;20039;-87
2023/04/09 09:15:03;;;;;;;38.22;34.10;;;;;;;16.37;59.54;102293.66;6243113;23;19996;-87
2023/04/09 09:17:29;;;;;;;38.20;33.85;;;;;;;16.68;58.42;102287.53;6239951;23;20715;-87
2023/04/09 09:19:54;;;;;;;37.67;33.42;;;;;;;16.54;56.12;102288.25;6239201;23;20011;-86
2023/04/09 09:22:19;;;;;;;38.22;34.13;;;;;;;16.42;58.63;102288.91;6239073;23;20004;-86
2023/04/09 09:24:49;;;;;;;38.75;33.15;;;;;;;16.48;58.83;102283.22;6239351;23;20090;-90
2023/04/09 09:27:39;;;;;;;37.55;33.55;;;;;;;16.17;60.36;102284.78;6212670;23;20381;-88
2023/04/09 09:30:05;;;;;;;36.95;32.95;;;;;;;15.79;60.62;102281.38;6215489;23;20000;-89
2023/04/09 09:32:32;;;;;;;38.63;34.40;;;;;;;15.67;61.34;102282.88;6242941;23;20008;-89
2023/04/09 09:35:02;;;;;;;39.17;35.08;;;;;;;15.34;61.47;102279.09;6245864;23;20007;-86
2023/04/09 09:37:28;;;;;;;38.58;34.38;;;;;;;15.29;61.79;102283.81;6256734;23;20000;-87
2023/04/09 09:39:54;;;;;;;37.72;33.72;;;;;;;15.54;60.70;102273.63;6223579;23;20160;-88
2023/04/09 09:42:19;;;;;;;39.67;34.70;;;;;;;15.91;60.40;102282.56;6242219;23;20034;-88
2023/04/09 09:44:46;;;;;;;37.55;33.58;;;;;;;16.59;57.06;102259.31;6235098;23;20008;-88
2023/04/09 09:47:15;;;;;;;37.88;33.78;;;;;;;16.68;56.94;102272.28;6211804;23;20341;-89
2023/04/09 09:49:40;;;;;;;35.50;31.70;;;;;;;16.73;56.33;102261.31;6238941;22;20381;-89
2023/04/09 09:52:08;;;;;;;36.50;32.55;;;;;;;16.42;56.97;102268.25;6237564;23;20007;-89
2023/04/09 09:54:42;;;;;;;36.83;32.92;;;;;;;16.15;59.46;102256.28;6240360;23;20054;-89
2023/04/09 09:57:12;;;;;;;36.03;32.22;;;;;;;16.53;59.45;102253.41;6212646;23;20146;-88
2023/04/09 09:59:46;;;;;;;34.83;31.02;;;;;;;16.68;58.36;102239.16;6241629;23;20019;-90
2023/04/09 10:02:19;;;;;;;35.05;31.25;;;;;;;17.14;58.67;102248.25;6242173;23;20082;-88
2023/04/09 10:04:47;;;;;;;36.20;31.45;;;;;;;17.51;53.47;102254.22;6257488;23;20034;-85
2023/04/09 10:07:13;;;;;;;34.58;30.90;;;;;;;17.61;55.08;102241.13;6259994;23;20008;-89
2023/04/09 10:09:42;;;;;;;34.88;31.17;;;;;;;17.55;54.64;102253.09;6256600;23;20711;-89
2023/04/09 10:12:08;;;;;;;36.55;32.72;;;;;;;17.27;55.36;102244.88;6256523;23;20012;-86
2023/04/09 10:14:35;;;;;;;36.05;32.15;;;;;;;17.82;55.81;102236.31;6259969;23;19999;-88
2023/04/09 10:17:02;;;;;;;32.58;29.25;;;;;;;20.43;49.49;102234.69;6260509;23;20309;-88
2023/04/09 10:19:29;;;;;;;33.22;29.73;;;;;;;21.47;43.23;102234.44;6263057;22;20181;-88
2023/04/09 10:22:01;;;;;;;32.50;29.25;;;;;;;22.06;43.84;102239.84;6261578;22;20008;-88
2023/04/09 10:24:26;;;;;;;25.63;23.15;;;;;;;23.55;39.69;102235.06;6230977;23;20024;-87
2023/04/09 10:27:08;;;;;;;24.08;21.60;;;;;;;25.74;39.02;102229.28;6257440;23;20378;-87
2023/04/09 10:29:33;;;;;;;24.30;21.90;;;;;;;26.13;34.90;102229.31;6256746;23;20432;-88
2023/04/09 10:32:05;;;;;;;23.80;21.40;;;;;;;27.02;33.75;102234.31;6254093;23;20600;-87
2023/04/09 10:34:40;;;;;;;21.23;19.03;;;;;;;27.80;32.32;102224.63;6254806;23;20004;-86
2023/04/09 10:37:13;;;;;;;19.55;17.55;;;;;;;26.85;30.53;102216.00;6245287;23;20426;-85
2023/04/09 10:39:40;;;;;;;;;;;;;;;27.93;35.82;102209.69;6246730;23;20008;-84
2023/04/09 10:42:16;;;;;;;18.90;17.00;;;;;;;24.27;33.80;102215.31;6226664;23;19907;-88
2023/04/09 10:44:41;;;;;;;21.20;19.20;;;;;;;22.18;35.99;102217.22;6247726;23;20004;-87
2023/04/09 10:47:07;;;;;;;22.30;20.10;;;;;;;20.74;38.81;102224.44;6241558;23;20011;-87
2023/04/09 10:49:37;;;;;;;17.13;15.32;;;;;;;19.47;40.01;102222.38;6241478;22;20016;-87
2023/04/09 10:52:04;;;;;;;17.98;16.35;;;;;;;18.84;42.09;102213.84;6240905;23;20000;-88
2023/04/09 10:54:32;;;;;;;20.83;18.50;;;;;;;18.19;44.23;102212.56;6240996;23;20078;-87
2023/04/09 10:57:06;;;;;;;21.63;19.30;;;;;;;17.67;45.46;102216.50;6241851;23;20008;-87
2023/04/09 10:59:33;;;;;;;20.95;18.73;;;;;;;17.28;44.58;102206.25;6241924;23;20005;-88
2023/04/09 11:01:58;;;;;;;22.73;20.52;;;;;;;18.32;44.41;102202.75;6224050;23;20426;-87
2023/04/09 11:04:37;;;;;;;21.70;19.30;;;;;;;21.44;41.34;102196.72;6254080;23;20042;-87
2023/04/09 11:07:05;;;;;;;19.83;17.83;;;;;;;22.89;35.31;102198.88;6245606;23;20004;-87
2023/04/09 11:09:34;;;;;;;19.33;17.33;;;;;;;22.71;37.12;102189.53;6255375;23;20007;-88
2023/04/09 11:12:00;;;;;;;18.00;16.30;;;;;;;23.56;34.36;102187.00;6241115;23;20004;-89